sensor_id;sensor_type;location;lat;lon;timestamp;pressure;altitude;pressure_sealevel;temperature
64394;BMP280;50712;49.506;10.400;2023-04-06T00:00:13;98325.38;;;4.37
64394;BMP280;50712;49.506;10.400;2023-04-06T00:00:44;98332.72;;;4.36
64394;BMP280;50712;49.506;10.400;2023-04-06T00:01:14;98329.25;;;4.36
64394;BMP280;50712;49.506;10.400;2023-04-06T00:01:45;98330.03;;;4.36
64394;BMP280;50712;49.506;10.400;2023-04-06T00:02:17;98325.78;;;4.35
64394;BMP280;50712;49.506;10.400;2023-04-06T00:02:47;98326.97;;;4.34
64394;BMP280;50712;49.506;10.400;2023-04-06T00:03:17;98326.19;;;4.34
64394;BMP280;50712;49.506;10.400;2023-04-06T00:03:48;98320.78;;;4.34
64394;BMP280;50712;49.506;10.400;2023-04-06T00:04:18;98326.19;;;4.34
64394;BMP280;50712;49.506;10.400;2023-04-06T00:04:49;98331.22;;;4.32
64394;BMP280;50712;49.506;10.400;2023-04-06T00:05:19;98327.75;;;4.31
64394;BMP280;50712;49.506;10.400;2023-04-06T00:05:50;98328.91;;;4.30
64394;BMP280;50712;49.506;10.400;2023-04-06T00:06:21;98321.56;;;4.31
64394;BMP280;50712;49.506;10.400;2023-04-06T00:06:51;98328.13;;;4.30
64394;BMP280;50712;49.506;10.400;2023-04-06T00:07:22;98329.28;;;4.29
64394;BMP280;50712;49.506;10.400;2023-04-06T00:07:53;98328.50;;;4.28
64394;BMP280;50712;49.506;10.400;2023-04-06T00:08:26;98330.84;;;4.26
64394;BMP280;50712;49.506;10.400;2023-04-06T00:08:57;98331.63;;;4.27
64394;BMP280;50712;49.506;10.400;2023-04-06T00:09:28;98323.91;;;4.25
64394;BMP280;50712;49.506;10.400;2023-04-06T00:09:58;98332.00;;;4.25
64394;BMP280;50712;49.506;10.400;2023-04-06T00:10:29;98327.75;;;4.24
64394;BMP280;50712;49.506;10.400;2023-04-06T00:10:59;98326.22;;;4.23
64394;BMP280;50712;49.506;10.400;2023-04-06T00:11:29;98321.19;;;4.22
64394;BMP280;50712;49.506;10.400;2023-04-06T00:12:00;98332.00;;;4.22
64394;BMP280;50712;49.506;10.400;2023-04-06T00:12:30;98327.78;;;4.21
64394;BMP280;50712;49.506;10.400;2023-04-06T00:13:01;98328.16;;;4.19
64394;BMP280;50712;49.506;10.400;2023-04-06T00:13:31;98328.16;;;4.19
64394;BMP280;50712;49.506;10.400;2023-04-06T00:14:02;98323.16;;;4.18
64394;BMP280;50712;49.506;10.400;2023-04-06T00:14:32;98319.69;;;4.17
64394;BMP280;50712;49.506;10.400;2023-04-06T00:15:02;98329.69;;;4.17
64394;BMP280;50712;49.506;10.400;2023-04-06T00:15:35;98328.16;;;4.16
64394;BMP280;50712;49.506;10.400;2023-04-06T00:16:06;98329.28;;;4.15
64394;BMP280;50712;49.506;10.400;2023-04-06T00:16:36;98325.84;;;4.14
64394;BMP280;50712;49.506;10.400;2023-04-06T00:17:06;98324.34;;;4.13
64394;BMP280;50712;49.506;10.400;2023-04-06T00:17:37;98319.31;;;4.12
64394;BMP280;50712;49.506;10.400;2023-04-06T00:18:07;98324.72;;;4.12
64394;BMP280;50712;49.506;10.400;2023-04-06T00:18:38;98323.19;;;4.11
64394;BMP280;50712;49.506;10.400;2023-04-06T00:19:08;98318.94;;;4.10
64394;BMP280;50712;49.506;10.400;2023-04-06T00:19:39;98316.25;;;4.10
64394;BMP280;50712;49.506;10.400;2023-04-06T00:20:09;98319.34;;;4.08
64394;BMP280;50712;49.506;10.400;2023-04-06T00:20:40;98327.44;;;4.08
64394;BMP280;50712;49.506;10.400;2023-04-06T00:21:11;98323.19;;;4.07
64394;BMP280;50712;49.506;10.400;2023-04-06T00:21:45;98327.81;;;4.07
64394;BMP280;50712;49.506;10.400;2023-04-06T00:22:16;98317.03;;;4.07
64394;BMP280;50712;49.506;10.400;2023-04-06T00:22:46;98323.56;;;4.06
64394;BMP280;50712;49.506;10.400;2023-04-06T00:23:16;98318.94;;;4.06
64394;BMP280;50712;49.506;10.400;2023-04-06T00:23:47;98323.56;;;4.06
64394;BMP280;50712;49.506;10.400;2023-04-06T00:24:17;98325.47;;;4.05
64394;BMP280;50712;49.506;10.400;2023-04-06T00:24:48;98323.56;;;4.06
64394;BMP280;50712;49.506;10.400;2023-04-06T00:25:18;98322.78;;;4.05
64394;BMP280;50712;49.506;10.400;2023-04-06T00:25:48;98324.75;;;4.05
64394;BMP280;50712;49.506;10.400;2023-04-06T00:26:19;98321.63;;;4.06
64394;BMP280;50712;49.506;10.400;2023-04-06T00:26:51;98316.25;;;4.06
64394;BMP280;50712;49.506;10.400;2023-04-06T00:27:21;98315.47;;;4.06
64394;BMP280;50712;49.506;10.400;2023-04-06T00:27:51;98326.25;;;4.06
64394;BMP280;50712;49.506;10.400;2023-04-06T00:28:22;98320.88;;;4.06
64394;BMP280;50712;49.506;10.400;2023-04-06T00:28:55;98313.56;;;4.06
64394;BMP280;50712;49.506;10.400;2023-04-06T00:29:26;98316.25;;;4.06
64394;BMP280;50712;49.506;10.400;2023-04-06T00:29:56;98314.69;;;4.05
64394;BMP280;50712;49.506;10.400;2023-04-06T00:30:28;98312.78;;;4.06
64394;BMP280;50712;49.506;10.400;2023-04-06T00:30:58;98315.47;;;4.06
64394;BMP280;50712;49.506;10.400;2023-04-06T00:31:29;98325.09;;;4.07
64394;BMP280;50712;49.506;10.400;2023-04-06T00:31:59;98325.88;;;4.07
64394;BMP280;50712;49.506;10.400;2023-04-06T00:32:30;98323.56;;;4.06
64394;BMP280;50712;49.506;10.400;2023-04-06T00:33:01;98316.25;;;4.06
64394;BMP280;50712;49.506;10.400;2023-04-06T00:33:31;98324.75;;;4.05
64394;BMP280;50712;49.506;10.400;2023-04-06T00:34:02;98313.19;;;4.04
64394;BMP280;50712;49.506;10.400;2023-04-06T00:34:32;98321.28;;;4.04
64394;BMP280;50712;49.506;10.400;2023-04-06T00:35:03;98318.56;;;4.04
64394;BMP280;50712;49.506;10.400;2023-04-06T00:35:34;98311.63;;;4.03
64394;BMP280;50712;49.506;10.400;2023-04-06T00:36:04;98316.25;;;4.03
64394;BMP280;50712;49.506;10.400;2023-04-06T00:36:35;98318.94;;;4.03
64394;BMP280;50712;49.506;10.400;2023-04-06T00:37:06;98311.63;;;4.03
64394;BMP280;50712;49.506;10.400;2023-04-06T00:37:36;98306.63;;;4.02
64394;BMP280;50712;49.506;10.400;2023-04-06T00:38:06;98309.34;;;4.02
64394;BMP280;50712;49.506;10.400;2023-04-06T00:38:37;98316.66;;;4.01
64394;BMP280;50712;49.506;10.400;2023-04-06T00:39:07;98309.72;;;4.00
64394;BMP280;50712;49.506;10.400;2023-04-06T00:39:38;98315.88;;;4.01
64394;BMP280;50712;49.506;10.400;2023-04-06T00:40:08;98307.00;;;4.00
64394;BMP280;50712;49.506;10.400;2023-04-06T00:40:39;98317.03;;;4.00
64394;BMP280;50712;49.506;10.400;2023-04-06T00:41:10;98311.63;;;4.00
64394;BMP280;50712;49.506;10.400;2023-04-06T00:41:42;98320.13;;;3.98
64394;BMP280;50712;49.506;10.400;2023-04-06T00:42:16;98315.50;;;3.99
64394;BMP280;50712;49.506;10.400;2023-04-06T00:42:48;98305.88;;;3.98
64394;BMP280;50712;49.506;10.400;2023-04-06T00:43:19;98310.47;;;3.97
64394;BMP280;50712;49.506;10.400;2023-04-06T00:43:49;98317.03;;;3.96
64394;BMP280;50712;49.506;10.400;2023-04-06T00:44:20;98312.81;;;3.95
64394;BMP280;50712;49.506;10.400;2023-04-06T00:44:54;98311.25;;;3.94
64394;BMP280;50712;49.506;10.400;2023-04-06T00:45:26;98312.41;;;3.93
64394;BMP280;50712;49.506;10.400;2023-04-06T00:45:56;98308.22;;;3.92
64394;BMP280;50712;49.506;10.400;2023-04-06T00:46:28;98309.38;;;3.91
64394;BMP280;50712;49.506;10.400;2023-04-06T00:46:58;98308.59;;;3.90
64394;BMP280;50712;49.506;10.400;2023-04-06T00:47:28;98309.00;;;3.89
64394;BMP280;50712;49.506;10.400;2023-04-06T00:47:59;98312.84;;;3.88
64394;BMP280;50712;49.506;10.400;2023-04-06T00:48:30;98312.44;;;3.86
64394;BMP280;50712;49.506;10.400;2023-04-06T00:49:01;98304.34;;;3.86
64394;BMP280;50712;49.506;10.400;2023-04-06T00:49:32;98309.00;;;3.85
64394;BMP280;50712;49.506;10.400;2023-04-06T00:50:03;98312.06;;;3.84
64394;BMP280;50712;49.506;10.400;2023-04-06T00:50:34;98312.06;;;3.84
64394;BMP280;50712;49.506;10.400;2023-04-06T00:51:05;98307.06;;;3.82
64394;BMP280;50712;49.506;10.400;2023-04-06T00:51:35;98307.06;;;3.82
64394;BMP280;50712;49.506;10.400;2023-04-06T00:52:06;98310.50;;;3.83
64394;BMP280;50712;49.506;10.400;2023-04-06T00:52:36;98307.44;;;3.81
64394;BMP280;50712;49.506;10.400;2023-04-06T00:53:09;98305.88;;;3.80
64394;BMP280;50712;49.506;10.400;2023-04-06T00:53:39;98301.69;;;3.79
64394;BMP280;50712;49.506;10.400;2023-04-06T00:54:10;98300.13;;;3.78
64394;BMP280;50712;49.506;10.400;2023-04-06T00:54:40;98304.75;;;3.77
64394;BMP280;50712;49.506;10.400;2023-04-06T00:55:12;98298.19;;;3.78
64394;BMP280;50712;49.506;10.400;2023-04-06T00:55:45;98302.03;;;3.77
64394;BMP280;50712;49.506;10.400;2023-04-06T00:56:16;98300.50;;;3.76
64394;BMP280;50712;49.506;10.400;2023-04-06T00:56:53;98297.06;;;3.76
64394;BMP280;50712;49.506;10.400;2023-04-06T00:57:25;98307.06;;;3.75
64394;BMP280;50712;49.506;10.400;2023-04-06T00:57:59;98304.38;;;3.75
64394;BMP280;50712;49.506;10.400;2023-04-06T00:58:33;98294.72;;;3.74
64394;BMP280;50712;49.506;10.400;2023-04-06T00:59:10;98299.34;;;3.74
64394;BMP280;50712;49.506;10.400;2023-04-06T00:59:41;98301.28;;;3.73
64394;BMP280;50712;49.506;10.400;2023-04-06T01:00:14;98305.91;;;3.73
64394;BMP280;50712;49.506;10.400;2023-04-06T01:00:48;98292.81;;;3.71
64394;BMP280;50712;49.506;10.400;2023-04-06T01:01:22;98302.84;;;3.71
64394;BMP280;50712;49.506;10.400;2023-04-06T01:01:55;98294.75;;;3.71
64394;BMP280;50712;49.506;10.400;2023-04-06T01:02:41;98298.63;;;3.70
64394;BMP280;50712;49.506;10.400;2023-04-06T01:03:13;98307.84;;;3.69
64394;BMP280;50712;49.506;10.400;2023-04-06T01:03:46;98305.94;;;3.69
64394;BMP280;50712;49.506;10.400;2023-04-06T01:04:21;98302.84;;;3.67
64394;BMP280;50712;49.506;10.400;2023-04-06T01:04:53;98295.94;;;3.66
64394;BMP280;50712;49.506;10.400;2023-04-06T01:05:33;98298.63;;;3.66
64394;BMP280;50712;49.506;10.400;2023-04-06T01:06:05;98301.31;;;3.66
64394;BMP280;50712;49.506;10.400;2023-04-06T01:06:40;98302.47;;;3.65
64394;BMP280;50712;49.506;10.400;2023-04-06T01:07:11;98295.53;;;3.64
64394;BMP280;50712;49.506;10.400;2023-04-06T01:07:49;98297.44;;;3.64
64394;BMP280;50712;49.506;10.400;2023-04-06T01:08:23;98292.47;;;3.62
64394;BMP280;50712;49.506;10.400;2023-04-06T01:08:59;98296.28;;;3.61
64394;BMP280;50712;49.506;10.400;2023-04-06T01:09:31;98288.22;;;3.61
64394;BMP280;50712;49.506;10.400;2023-04-06T01:10:04;98293.59;;;3.61
64394;BMP280;50712;49.506;10.400;2023-04-06T01:10:37;98294.78;;;3.60
64394;BMP280;50712;49.506;10.400;2023-04-06T01:11:17;98292.47;;;3.59
64394;BMP280;50712;49.506;10.400;2023-04-06T01:11:48;98297.84;;;3.59
64394;BMP280;50712;49.506;10.400;2023-04-06T01:12:26;98295.16;;;3.59
64394;BMP280;50712;49.506;10.400;2023-04-06T01:12:56;98293.59;;;3.58
64394;BMP280;50712;49.506;10.400;2023-04-06T01:13:45;98294.78;;;3.57
64394;BMP280;50712;49.506;10.400;2023-04-06T01:14:27;98294.00;;;3.56
64394;BMP280;50712;49.506;10.400;2023-04-06T01:15:02;98295.91;;;3.56
64394;BMP280;50712;49.506;10.400;2023-04-06T01:15:38;98297.06;;;3.55
64394;BMP280;50712;49.506;10.400;2023-04-06T01:16:11;98297.06;;;3.55
64394;BMP280;50712;49.506;10.400;2023-04-06T01:16:57;98289.38;;;3.53
64394;BMP280;50712;49.506;10.400;2023-04-06T01:17:32;98285.50;;;3.54
64394;BMP280;50712;49.506;10.400;2023-04-06T01:18:10;98290.53;;;3.52
64394;BMP280;50712;49.506;10.400;2023-04-06T01:18:44;98294.00;;;3.53
64394;BMP280;50712;49.506;10.400;2023-04-06T01:19:19;98289.75;;;3.52
64394;BMP280;50712;49.506;10.400;2023-04-06T01:19:55;98297.06;;;3.51
64394;BMP280;50712;49.506;10.400;2023-04-06T01:20:30;98290.91;;;3.51
64394;BMP280;50712;49.506;10.400;2023-04-06T01:21:03;98293.63;;;3.51
64394;BMP280;50712;49.506;10.400;2023-04-06T01:21:33;98297.44;;;3.50
64394;BMP280;50712;49.506;10.400;2023-04-06T01:22:24;98291.28;;;3.49
64394;BMP280;50712;49.506;10.400;2023-04-06T01:23:01;98288.97;;;3.48
64394;BMP280;50712;49.506;10.400;2023-04-06T01:23:32;98291.66;;;3.48
64394;BMP280;50712;49.506;10.400;2023-04-06T01:24:02;98290.13;;;3.47
64394;BMP280;50712;49.506;10.400;2023-04-06T01:24:42;98282.47;;;3.45
64394;BMP280;50712;49.506;10.400;2023-04-06T01:25:20;98284.38;;;3.45
64394;BMP280;50712;49.506;10.400;2023-04-06T01:26:04;98288.25;;;3.44
64394;BMP280;50712;49.506;10.400;2023-04-06T01:26:35;98290.94;;;3.44
64394;BMP280;50712;49.506;10.400;2023-04-06T01:27:10;98289.38;;;3.43
64394;BMP280;50712;49.506;10.400;2023-04-06T01:28:07;98286.69;;;3.43
64394;BMP280;50712;49.506;10.400;2023-04-06T01:28:56;98285.53;;;3.40
64394;BMP280;50712;49.506;10.400;2023-04-06T01:29:32;98283.22;;;3.39
64394;BMP280;50712;49.506;10.400;2023-04-06T01:30:03;98279.00;;;3.38
64394;BMP280;50712;49.506;10.400;2023-04-06T01:30:51;98280.16;;;3.37
64394;BMP280;50712;49.506;10.400;2023-04-06T01:31:42;98279.78;;;3.34
64394;BMP280;50712;49.506;10.400;2023-04-06T01:32:12;98287.09;;;3.34
64394;BMP280;50712;49.506;10.400;2023-04-06T01:32:51;98280.91;;;3.33
64394;BMP280;50712;49.506;10.400;2023-04-06T01:33:30;98284.75;;;3.32
64394;BMP280;50712;49.506;10.400;2023-04-06T01:34:05;98279.38;;;3.32
64394;BMP280;50712;49.506;10.400;2023-04-06T01:34:36;98278.59;;;3.32
64394;BMP280;50712;49.506;10.400;2023-04-06T01:35:09;98281.28;;;3.32
64394;BMP280;50712;49.506;10.400;2023-04-06T01:35:46;98277.06;;;3.31
64394;BMP280;50712;49.506;10.400;2023-04-06T01:36:20;98280.91;;;3.30
64394;BMP280;50712;49.506;10.400;2023-04-06T01:36:58;98276.31;;;3.30
64394;BMP280;50712;49.506;10.400;2023-04-06T01:37:33;98276.31;;;3.30
64394;BMP280;50712;49.506;10.400;2023-04-06T01:38:06;98277.44;;;3.29
64394;BMP280;50712;49.506;10.400;2023-04-06T01:38:39;98279.38;;;3.29
64394;BMP280;50712;49.506;10.400;2023-04-06T01:39:11;98275.94;;;3.28
64394;BMP280;50712;49.506;10.400;2023-04-06T01:39:44;98269.75;;;3.28
64394;BMP280;50712;49.506;10.400;2023-04-06T01:40:21;98279.00;;;3.27
64394;BMP280;50712;49.506;10.400;2023-04-06T01:40:53;98278.63;;;3.25
64394;BMP280;50712;49.506;10.400;2023-04-06T01:41:26;98269.75;;;3.24
64394;BMP280;50712;49.506;10.400;2023-04-06T01:41:57;98274.38;;;3.24
64394;BMP280;50712;49.506;10.400;2023-04-06T01:42:29;98272.81;;;3.23
64394;BMP280;50712;49.506;10.400;2023-04-06T01:43:01;98269.34;;;3.22
64394;BMP280;50712;49.506;10.400;2023-04-06T01:43:46;98271.31;;;3.22
64394;BMP280;50712;49.506;10.400;2023-04-06T01:44:18;98273.22;;;3.21
64394;BMP280;50712;49.506;10.400;2023-04-06T01:44:53;98269.78;;;3.21
64394;BMP280;50712;49.506;10.400;2023-04-06T01:45:23;98272.47;;;3.21
64394;BMP280;50712;49.506;10.400;2023-04-06T01:45:56;98270.94;;;3.20
64394;BMP280;50712;49.506;10.400;2023-04-06T01:46:33;98268.22;;;3.20
64394;BMP280;50712;49.506;10.400;2023-04-06T01:47:05;98269.41;;;3.19
64394;BMP280;50712;49.506;10.400;2023-04-06T01:47:36;98277.47;;;3.19
64394;BMP280;50712;49.506;10.400;2023-04-06T01:48:07;98266.31;;;3.17
64394;BMP280;50712;49.506;10.400;2023-04-06T01:48:38;98279.00;;;3.16
64394;BMP280;50712;49.506;10.400;2023-04-06T01:49:18;98275.53;;;3.16
64394;BMP280;50712;49.506;10.400;2023-04-06T01:49:53;98264.00;;;3.15
64394;BMP280;50712;49.506;10.400;2023-04-06T01:50:24;98272.09;;;3.15
64394;BMP280;50712;49.506;10.400;2023-04-06T01:50:54;98267.84;;;3.14
64394;BMP280;50712;49.506;10.400;2023-04-06T01:51:31;98269.00;;;3.13
64394;BMP280;50712;49.506;10.400;2023-04-06T01:52:04;98269.00;;;3.13
64394;BMP280;50712;49.506;10.400;2023-04-06T01:52:35;98270.16;;;3.12
64394;BMP280;50712;49.506;10.400;2023-04-06T01:53:07;98271.31;;;3.11
64394;BMP280;50712;49.506;10.400;2023-04-06T01:53:38;98265.91;;;3.11
64394;BMP280;50712;49.506;10.400;2023-04-06T01:54:10;98269.75;;;3.10
64394;BMP280;50712;49.506;10.400;2023-04-06T01:54:55;98261.69;;;3.10
64394;BMP280;50712;49.506;10.400;2023-04-06T01:55:46;98268.97;;;3.10
64394;BMP280;50712;49.506;10.400;2023-04-06T01:56:25;98261.31;;;3.08
64394;BMP280;50712;49.506;10.400;2023-04-06T01:57:03;98267.47;;;3.09
64394;BMP280;50712;49.506;10.400;2023-04-06T01:57:47;98258.97;;;3.07
64394;BMP280;50712;49.506;10.400;2023-04-06T01:58:26;98263.22;;;3.08
64394;BMP280;50712;49.506;10.400;2023-04-06T01:58:57;98260.91;;;3.06
64394;BMP280;50712;49.506;10.400;2023-04-06T01:59:29;98265.13;;;3.07
64394;BMP280;50712;49.506;10.400;2023-04-06T02:00:00;98268.22;;;3.06
64394;BMP280;50712;49.506;10.400;2023-04-06T02:00:43;98264.75;;;3.05
64394;BMP280;50712;49.506;10.400;2023-04-06T02:01:14;98262.06;;;3.05
64394;BMP280;50712;49.506;10.400;2023-04-06T02:02:03;98265.13;;;3.04
64394;BMP280;50712;49.506;10.400;2023-04-06T02:02:35;98270.91;;;3.02
64394;BMP280;50712;49.506;10.400;2023-04-06T02:03:10;98270.50;;;3.04
64394;BMP280;50712;49.506;10.400;2023-04-06T02:03:40;98262.81;;;3.02
64394;BMP280;50712;49.506;10.400;2023-04-06T02:04:14;98266.28;;;3.03
64394;BMP280;50712;49.506;10.400;2023-04-06T02:04:45;98267.44;;;3.02
64394;BMP280;50712;49.506;10.400;2023-04-06T02:05:17;98265.88;;;3.01
64394;BMP280;50712;49.506;10.400;2023-04-06T02:05:49;98265.88;;;3.01
64394;BMP280;50712;49.506;10.400;2023-04-06T02:06:31;98264.38;;;3.00
64394;BMP280;50712;49.506;10.400;2023-04-06T02:07:03;98260.91;;;2.99
64394;BMP280;50712;49.506;10.400;2023-04-06T02:07:33;98261.28;;;2.98
64394;BMP280;50712;49.506;10.400;2023-04-06T02:08:05;98260.50;;;2.97
64394;BMP280;50712;49.506;10.400;2023-04-06T02:08:38;98260.88;;;2.96
64394;BMP280;50712;49.506;10.400;2023-04-06T02:09:09;98262.41;;;2.97
64394;BMP280;50712;49.506;10.400;2023-04-06T02:09:39;98260.88;;;2.96
64394;BMP280;50712;49.506;10.400;2023-04-06T02:10:14;98265.50;;;2.95
64394;BMP280;50712;49.506;10.400;2023-04-06T02:10:46;98266.63;;;2.94
64394;BMP280;50712;49.506;10.400;2023-04-06T02:11:26;98260.47;;;2.94
64394;BMP280;50712;49.506;10.400;2023-04-06T02:11:59;98262.44;;;2.93
64394;BMP280;50712;49.506;10.400;2023-04-06T02:12:31;98256.28;;;2.93
64394;BMP280;50712;49.506;10.400;2023-04-06T02:13:01;98261.66;;;2.93
64394;BMP280;50712;49.506;10.400;2023-04-06T02:13:32;98257.44;;;2.92
64394;BMP280;50712;49.506;10.400;2023-04-06T02:14:03;98256.66;;;2.91
64394;BMP280;50712;49.506;10.400;2023-04-06T02:14:37;98263.22;;;2.90
64394;BMP280;50712;49.506;10.400;2023-04-06T02:15:08;98264.75;;;2.91
64394;BMP280;50712;49.506;10.400;2023-04-06T02:15:39;98258.59;;;2.91
64394;BMP280;50712;49.506;10.400;2023-04-06T02:16:10;98257.84;;;2.90
64394;BMP280;50712;49.506;10.400;2023-04-06T02:16:40;98265.13;;;2.90
64394;BMP280;50712;49.506;10.400;2023-04-06T02:17:11;98259.75;;;2.90
64394;BMP280;50712;49.506;10.400;2023-04-06T02:17:42;98261.66;;;2.89
64394;BMP280;50712;49.506;10.400;2023-04-06T02:18:13;98256.28;;;2.89
64394;BMP280;50712;49.506;10.400;2023-04-06T02:18:44;98258.19;;;2.89
64394;BMP280;50712;49.506;10.400;2023-04-06T02:19:15;98262.44;;;2.90
64394;BMP280;50712;49.506;10.400;2023-04-06T02:19:47;98260.13;;;2.88
64394;BMP280;50712;49.506;10.400;2023-04-06T02:20:17;98258.19;;;2.89
64394;BMP280;50712;49.506;10.400;2023-04-06T02:20:48;98253.19;;;2.87
64394;BMP280;50712;49.506;10.400;2023-04-06T02:21:18;98256.66;;;2.88
64394;BMP280;50712;49.506;10.400;2023-04-06T02:21:50;98255.88;;;2.87
64394;BMP280;50712;49.506;10.400;2023-04-06T02:22:20;98255.88;;;2.87
64394;BMP280;50712;49.506;10.400;2023-04-06T02:22:51;98255.13;;;2.87
64394;BMP280;50712;49.506;10.400;2023-04-06T02:23:21;98257.03;;;2.86
64394;BMP280;50712;49.506;10.400;2023-04-06T02:23:52;98250.13;;;2.85
64394;BMP280;50712;49.506;10.400;2023-04-06T02:24:22;98251.25;;;2.84
64394;BMP280;50712;49.506;10.400;2023-04-06T02:24:53;98253.94;;;2.84
64394;BMP280;50712;49.506;10.400;2023-04-06T02:25:23;98262.03;;;2.84
64394;BMP280;50712;49.506;10.400;2023-04-06T02:25:53;98261.28;;;2.84
64394;BMP280;50712;49.506;10.400;2023-04-06T02:26:24;98258.94;;;2.82
64394;BMP280;50712;49.506;10.400;2023-04-06T02:26:55;98258.94;;;2.82
64394;BMP280;50712;49.506;10.400;2023-04-06T02:27:25;98260.09;;;2.81
64394;BMP280;50712;49.506;10.400;2023-04-06T02:27:56;98258.56;;;2.80
64394;BMP280;50712;49.506;10.400;2023-04-06T02:28:26;98267.41;;;2.81
64394;BMP280;50712;49.506;10.400;2023-04-06T02:28:57;98263.19;;;2.80
64394;BMP280;50712;49.506;10.400;2023-04-06T02:29:27;98258.94;;;2.78
64394;BMP280;50712;49.506;10.400;2023-04-06T02:29:58;98263.53;;;2.78
64394;BMP280;50712;49.506;10.400;2023-04-06T02:30:28;98262.03;;;2.77
64394;BMP280;50712;49.506;10.400;2023-04-06T02:30:59;98267.00;;;2.78
64394;BMP280;50712;49.506;10.400;2023-04-06T02:31:31;98259.34;;;2.77
64394;BMP280;50712;49.506;10.400;2023-04-06T02:32:02;98264.72;;;2.77
64394;BMP280;50712;49.506;10.400;2023-04-06T02:32:35;98258.91;;;2.75
64394;BMP280;50712;49.506;10.400;2023-04-06T02:33:06;98259.69;;;2.75
64394;BMP280;50712;49.506;10.400;2023-04-06T02:33:44;98258.91;;;2.75
64394;BMP280;50712;49.506;10.400;2023-04-06T02:34:17;98268.16;;;2.74
64394;BMP280;50712;49.506;10.400;2023-04-06T02:34:51;98260.09;;;2.74
64394;BMP280;50712;49.506;10.400;2023-04-06T02:35:24;98261.22;;;2.73
64394;BMP280;50712;49.506;10.400;2023-04-06T02:35:58;98263.16;;;2.72
64394;BMP280;50712;49.506;10.400;2023-04-06T02:36:28;98265.06;;;2.72
64394;BMP280;50712;49.506;10.400;2023-04-06T02:36:59;98261.59;;;2.71
64394;BMP280;50712;49.506;10.400;2023-04-06T02:37:29;98265.06;;;2.72
64394;BMP280;50712;49.506;10.400;2023-04-06T02:37:59;98266.22;;;2.71
64394;BMP280;50712;49.506;10.400;2023-04-06T02:38:30;98262.78;;;2.70
64394;BMP280;50712;49.506;10.400;2023-04-06T02:39:02;98262.00;;;2.70
64394;BMP280;50712;49.506;10.400;2023-04-06T02:39:33;98262.00;;;2.70
64394;BMP280;50712;49.506;10.400;2023-04-06T02:40:05;98260.44;;;2.69
64394;BMP280;50712;49.506;10.400;2023-04-06T02:40:36;98265.06;;;2.68
64394;BMP280;50712;49.506;10.400;2023-04-06T02:41:18;98263.13;;;2.69
64394;BMP280;50712;49.506;10.400;2023-04-06T02:41:48;98257.38;;;2.67
64394;BMP280;50712;49.506;10.400;2023-04-06T02:42:23;98264.66;;;2.66
64394;BMP280;50712;49.506;10.400;2023-04-06T02:42:55;98263.91;;;2.66
64394;BMP280;50712;49.506;10.400;2023-04-06T02:43:32;98268.50;;;2.65
64394;BMP280;50712;49.506;10.400;2023-04-06T02:44:15;98259.66;;;2.65
64394;BMP280;50712;49.506;10.400;2023-04-06T02:44:47;98260.81;;;2.64
64394;BMP280;50712;49.506;10.400;2023-04-06T02:45:18;98261.59;;;2.64
64394;BMP280;50712;49.506;10.400;2023-04-06T02:45:51;98264.66;;;2.63
64394;BMP280;50712;49.506;10.400;2023-04-06T02:46:22;98265.44;;;2.63
64394;BMP280;50712;49.506;10.400;2023-04-06T02:46:53;98264.66;;;2.63
64394;BMP280;50712;49.506;10.400;2023-04-06T02:47:25;98272.72;;;2.63
64394;BMP280;50712;49.506;10.400;2023-04-06T02:47:56;98267.00;;;2.61
64394;BMP280;50712;49.506;10.400;2023-04-06T02:48:27;98263.53;;;2.60
64394;BMP280;50712;49.506;10.400;2023-04-06T02:48:58;98265.44;;;2.60
64394;BMP280;50712;49.506;10.400;2023-04-06T02:49:31;98264.66;;;2.59
64394;BMP280;50712;49.506;10.400;2023-04-06T02:50:03;98263.16;;;2.58
64394;BMP280;50712;49.506;10.400;2023-04-06T02:50:35;98270.44;;;2.58
64394;BMP280;50712;49.506;10.400;2023-04-06T02:51:09;98268.88;;;2.57
64394;BMP280;50712;49.506;10.400;2023-04-06T02:51:41;98268.88;;;2.57
64394;BMP280;50712;49.506;10.400;2023-04-06T02:52:29;98264.66;;;2.56
64394;BMP280;50712;49.506;10.400;2023-04-06T02:53:00;98266.56;;;2.55
64394;BMP280;50712;49.506;10.400;2023-04-06T02:53:30;98267.72;;;2.54
64394;BMP280;50712;49.506;10.400;2023-04-06T02:54:01;98266.56;;;2.55
64394;BMP280;50712;49.506;10.400;2023-04-06T02:54:31;98263.50;;;2.53
64394;BMP280;50712;49.506;10.400;2023-04-06T02:55:03;98262.72;;;2.53
64394;BMP280;50712;49.506;10.400;2023-04-06T02:55:35;98270.78;;;2.53
64394;BMP280;50712;49.506;10.400;2023-04-06T02:56:05;98261.94;;;2.52
64394;BMP280;50712;49.506;10.400;2023-04-06T02:56:51;98265.78;;;2.51
64394;BMP280;50712;49.506;10.400;2023-04-06T02:57:22;98266.16;;;2.50
64394;BMP280;50712;49.506;10.400;2023-04-06T02:57:52;98264.63;;;2.49
64394;BMP280;50712;49.506;10.400;2023-04-06T02:58:27;98265.38;;;2.49
64394;BMP280;50712;49.506;10.400;2023-04-06T02:59:00;98259.63;;;2.47
64394;BMP280;50712;49.506;10.400;2023-04-06T02:59:34;98257.72;;;2.48
64394;BMP280;50712;49.506;10.400;2023-04-06T03:00:14;98261.53;;;2.47
64394;BMP280;50712;49.506;10.400;2023-04-06T03:00:45;98258.84;;;2.47
64394;BMP280;50712;49.506;10.400;2023-04-06T03:01:16;98258.06;;;2.46
64394;BMP280;50712;49.506;10.400;2023-04-06T03:01:47;98260.00;;;2.46
64394;BMP280;50712;49.506;10.400;2023-04-06T03:02:17;98262.69;;;2.46
64394;BMP280;50712;49.506;10.400;2023-04-06T03:02:49;98261.16;;;2.45
64394;BMP280;50712;49.506;10.400;2023-04-06T03:03:21;98264.63;;;2.45
64394;BMP280;50712;49.506;10.400;2023-04-06T03:03:51;98258.47;;;2.45
64394;BMP280;50712;49.506;10.400;2023-04-06T03:04:27;98257.69;;;2.44
64394;BMP280;50712;49.506;10.400;2023-04-06T03:04:59;98261.16;;;2.45
64394;BMP280;50712;49.506;10.400;2023-04-06T03:05:37;98264.22;;;2.43
64394;BMP280;50712;49.506;10.400;2023-04-06T03:06:07;98252.69;;;2.43
64394;BMP280;50712;49.506;10.400;2023-04-06T03:06:38;98253.47;;;2.43
64394;BMP280;50712;49.506;10.400;2023-04-06T03:07:19;98256.16;;;2.43
64394;BMP280;50712;49.506;10.400;2023-04-06T03:07:51;98251.94;;;2.42
64394;BMP280;50712;49.506;10.400;2023-04-06T03:08:30;98262.69;;;2.42
64394;BMP280;50712;49.506;10.400;2023-04-06T03:09:02;98264.59;;;2.42
64394;BMP280;50712;49.506;10.400;2023-04-06T03:09:33;98255.75;;;2.41
64394;BMP280;50712;49.506;10.400;2023-04-06T03:10:04;98260.38;;;2.41